<?xml version="1.0" encoding="UTF-8" standalone="no" ?>
<gpx xmlns="http://www.topografix.com/GPX/1/1" xmlns:xsi="http://www.w3.org/2001/XMLSchema-instance" xsi:schemaLocation="http://www.topografix.com/GPX/1/1 http://www.topografix.com/GPX/1/1/gpx.xsd" version="1.1" creator="VisuGPX - https://www.visugpx.com">
  <metadata>
    <name>Section 1 - Prat de Bouc - Marcenat</name>
    <desc><![CDATA[Première section d'un "trail off" allant de Prat de Bouc à Volvic en 3 étapes.]]></desc>
  </metadata>
  <trk>
    <name><![CDATA[20190311223419-yL79u]]></name>
    <trkseg>
      <trkpt lat="45.05323" lon="2.79372">
        <ele>1385</ele>
        <time>2019-03-04T22:13:07Z</time>
      </trkpt>
      <trkpt lat="45.05287" lon="2.79086">
        <ele>1392</ele>
        <time>2019-03-04T22:14:07Z</time>
      </trkpt>
      <trkpt lat="45.0533" lon="2.78904">
        <ele>1397</ele>
        <time>2019-03-04T22:15:07Z</time>
      </trkpt>
      <trkpt lat="45.0531" lon="2.78847">
        <ele>1400</ele>
        <time>2019-03-04T22:16:07Z</time>
      </trkpt>
      <trkpt lat="45.05248" lon="2.78428">
        <ele>1430</ele>
        <time>2019-03-04T22:17:07Z</time>
      </trkpt>
      <trkpt lat="45.05235" lon="2.78204">
        <ele>1475</ele>
        <time>2019-03-04T22:18:07Z</time>
      </trkpt>
      <trkpt lat="45.05272" lon="2.78006">
        <ele>1504</ele>
        <time>2019-03-04T22:19:07Z</time>
      </trkpt>
      <trkpt lat="45.0527" lon="2.77985">
        <ele>1506</ele>
        <time>2019-03-04T22:20:07Z</time>
      </trkpt>
      <trkpt lat="45.05216" lon="2.77861">
        <ele>1536</ele>
        <time>2019-03-04T22:21:07Z</time>
      </trkpt>
      <trkpt lat="45.05346" lon="2.77385">
        <ele>1600</ele>
        <time>2019-03-04T22:22:07Z</time>
      </trkpt>
      <trkpt lat="45.05631" lon="2.76433">
        <ele>1764</ele>
        <time>2019-03-04T22:23:07Z</time>
      </trkpt>
      <trkpt lat="45.05797" lon="2.76162">
        <ele>1822</ele>
        <time>2019-03-04T22:24:07Z</time>
      </trkpt>
      <trkpt lat="45.059" lon="2.76094">
        <ele>1817</ele>
        <time>2019-03-04T22:25:07Z</time>
      </trkpt>
      <trkpt lat="45.05975" lon="2.76175">
        <ele>1819</ele>
        <time>2019-03-04T22:26:07Z</time>
      </trkpt>
      <trkpt lat="45.06236" lon="2.7615">
        <ele>1795</ele>
        <time>2019-03-04T22:27:07Z</time>
      </trkpt>
      <trkpt lat="45.06471" lon="2.76393">
        <ele>1763</ele>
        <time>2019-03-04T22:28:07Z</time>
      </trkpt>
      <trkpt lat="45.06591" lon="2.76631">
        <ele>1740</ele>
        <time>2019-03-04T22:29:07Z</time>
      </trkpt>
      <trkpt lat="45.06732" lon="2.76629">
        <ele>1738</ele>
        <time>2019-03-04T22:30:07Z</time>
      </trkpt>
      <trkpt lat="45.06804" lon="2.76698">
        <ele>1739</ele>
        <time>2019-03-04T22:31:07Z</time>
      </trkpt>
      <trkpt lat="45.0697" lon="2.76678">
        <ele>1714</ele>
        <time>2019-03-04T22:32:07Z</time>
      </trkpt>
      <trkpt lat="45.0706" lon="2.76591">
        <ele>1687</ele>
        <time>2019-03-04T22:33:07Z</time>
      </trkpt>
      <trkpt lat="45.07155" lon="2.76568">
        <ele>1684</ele>
        <time>2019-03-04T22:34:07Z</time>
      </trkpt>
      <trkpt lat="45.07273" lon="2.7644">
        <ele>1638</ele>
        <time>2019-03-04T22:35:07Z</time>
      </trkpt>
      <trkpt lat="45.07139" lon="2.7645">
        <ele>1636</ele>
        <time>2019-03-04T22:36:07Z</time>
      </trkpt>
      <trkpt lat="45.07103" lon="2.7642">
        <ele>1623</ele>
        <time>2019-03-04T22:37:07Z</time>
      </trkpt>
      <trkpt lat="45.07285" lon="2.76205">
        <ele>1567</ele>
        <time>2019-03-04T22:38:07Z</time>
      </trkpt>
      <trkpt lat="45.07303" lon="2.76114">
        <ele>1550</ele>
        <time>2019-03-04T22:39:07Z</time>
      </trkpt>
      <trkpt lat="45.07474" lon="2.76086">
        <ele>1518</ele>
        <time>2019-03-04T22:40:07Z</time>
      </trkpt>
      <trkpt lat="45.07613" lon="2.75927">
        <ele>1468</ele>
        <time>2019-03-04T22:41:07Z</time>
      </trkpt>
      <trkpt lat="45.077" lon="2.75838">
        <ele>1442</ele>
        <time>2019-03-04T22:42:07Z</time>
      </trkpt>
      <trkpt lat="45.07768" lon="2.7579">
        <ele>1423</ele>
        <time>2019-03-04T22:43:07Z</time>
      </trkpt>
      <trkpt lat="45.0779" lon="2.75851">
        <ele>1421</ele>
        <time>2019-03-04T22:44:07Z</time>
      </trkpt>
      <trkpt lat="45.07829" lon="2.75784">
        <ele>1411</ele>
        <time>2019-03-04T22:45:07Z</time>
      </trkpt>
      <trkpt lat="45.08038" lon="2.75631">
        <ele>1346</ele>
        <time>2019-03-04T22:46:07Z</time>
      </trkpt>
      <trkpt lat="45.08134" lon="2.75545">
        <ele>1315</ele>
        <time>2019-03-04T22:47:07Z</time>
      </trkpt>
      <trkpt lat="45.08181" lon="2.75238">
        <ele>1266</ele>
        <time>2019-03-04T22:48:07Z</time>
      </trkpt>
      <trkpt lat="45.08184" lon="2.75062">
        <ele>1247</ele>
        <time>2019-03-04T22:49:07Z</time>
      </trkpt>
      <trkpt lat="45.08199" lon="2.74942">
        <ele>1242</ele>
        <time>2019-03-04T22:50:07Z</time>
      </trkpt>
      <trkpt lat="45.08256" lon="2.74825">
        <ele>1245</ele>
        <time>2019-03-04T22:51:07Z</time>
      </trkpt>
      <trkpt lat="45.08226" lon="2.74766">
        <ele>1246</ele>
        <time>2019-03-04T22:52:07Z</time>
      </trkpt>
      <trkpt lat="45.083" lon="2.74669">
        <ele>1268</ele>
        <time>2019-03-04T22:53:07Z</time>
      </trkpt>
      <trkpt lat="45.08408" lon="2.74623">
        <ele>1282</ele>
        <time>2019-03-04T22:54:07Z</time>
      </trkpt>
      <trkpt lat="45.08478" lon="2.74509">
        <ele>1283</ele>
        <time>2019-03-04T22:55:07Z</time>
      </trkpt>
      <trkpt lat="45.08507" lon="2.74358">
        <ele>1278</ele>
        <time>2019-03-04T22:56:07Z</time>
      </trkpt>
      <trkpt lat="45.08563" lon="2.73968">
        <ele>1277</ele>
        <time>2019-03-04T22:57:07Z</time>
      </trkpt>
      <trkpt lat="45.08581" lon="2.7389">
        <ele>1272</ele>
        <time>2019-03-04T22:58:07Z</time>
      </trkpt>
      <trkpt lat="45.0854" lon="2.7372">
        <ele>1284</ele>
        <time>2019-03-04T22:59:07Z</time>
      </trkpt>
      <trkpt lat="45.0851" lon="2.73626">
        <ele>1292</ele>
        <time>2019-03-04T23:00:07Z</time>
      </trkpt>
      <trkpt lat="45.08535" lon="2.73471">
        <ele>1297</ele>
        <time>2019-03-04T23:01:07Z</time>
      </trkpt>
      <trkpt lat="45.08609" lon="2.73298">
        <ele>1319</ele>
        <time>2019-03-04T23:02:07Z</time>
      </trkpt>
      <trkpt lat="45.08713" lon="2.73027">
        <ele>1343</ele>
        <time>2019-03-04T23:03:07Z</time>
      </trkpt>
      <trkpt lat="45.0869" lon="2.7271">
        <ele>1382</ele>
        <time>2019-03-04T23:04:07Z</time>
      </trkpt>
      <trkpt lat="45.08754" lon="2.72602">
        <ele>1400</ele>
        <time>2019-03-04T23:05:07Z</time>
      </trkpt>
      <trkpt lat="45.08782" lon="2.7245">
        <ele>1425</ele>
        <time>2019-03-04T23:06:07Z</time>
      </trkpt>
      <trkpt lat="45.08879" lon="2.72324">
        <ele>1443</ele>
        <time>2019-03-04T23:07:07Z</time>
      </trkpt>
      <trkpt lat="45.08953" lon="2.7223">
        <ele>1455</ele>
        <time>2019-03-04T23:08:07Z</time>
      </trkpt>
      <trkpt lat="45.0904" lon="2.71822">
        <ele>1503</ele>
        <time>2019-03-04T23:09:07Z</time>
      </trkpt>
      <trkpt lat="45.09083" lon="2.7175">
        <ele>1509</ele>
        <time>2019-03-04T23:10:07Z</time>
      </trkpt>
      <trkpt lat="45.09269" lon="2.71717">
        <ele>1529</ele>
        <time>2019-03-04T23:11:07Z</time>
      </trkpt>
      <trkpt lat="45.09439" lon="2.71768">
        <ele>1544</ele>
        <time>2019-03-04T23:12:07Z</time>
      </trkpt>
      <trkpt lat="45.09559" lon="2.71797">
        <ele>1540</ele>
        <time>2019-03-04T23:13:07Z</time>
      </trkpt>
      <trkpt lat="45.09801" lon="2.71699">
        <ele>1550</ele>
        <time>2019-03-04T23:14:07Z</time>
      </trkpt>
      <trkpt lat="45.09977" lon="2.71656">
        <ele>1538</ele>
        <time>2019-03-04T23:15:07Z</time>
      </trkpt>
      <trkpt lat="45.10059" lon="2.71678">
        <ele>1541</ele>
        <time>2019-03-04T23:16:07Z</time>
      </trkpt>
      <trkpt lat="45.10199" lon="2.71631">
        <ele>1525</ele>
        <time>2019-03-04T23:17:07Z</time>
      </trkpt>
      <trkpt lat="45.10301" lon="2.71649">
        <ele>1526</ele>
        <time>2019-03-04T23:18:07Z</time>
      </trkpt>
      <trkpt lat="45.10391" lon="2.71612">
        <ele>1519</ele>
        <time>2019-03-04T23:19:07Z</time>
      </trkpt>
      <trkpt lat="45.10433" lon="2.71504">
        <ele>1535</ele>
        <time>2019-03-04T23:20:07Z</time>
      </trkpt>
      <trkpt lat="45.10432" lon="2.71419">
        <ele>1539</ele>
        <time>2019-03-04T23:21:07Z</time>
      </trkpt>
      <trkpt lat="45.10444" lon="2.71343">
        <ele>1540</ele>
        <time>2019-03-04T23:22:07Z</time>
      </trkpt>
      <trkpt lat="45.10504" lon="2.71312">
        <ele>1563</ele>
        <time>2019-03-04T23:23:07Z</time>
      </trkpt>
      <trkpt lat="45.1052" lon="2.71255">
        <ele>1556</ele>
        <time>2019-03-04T23:24:07Z</time>
      </trkpt>
      <trkpt lat="45.10555" lon="2.71199">
        <ele>1565</ele>
        <time>2019-03-04T23:25:07Z</time>
      </trkpt>
      <trkpt lat="45.10588" lon="2.71112">
        <ele>1561</ele>
        <time>2019-03-04T23:26:07Z</time>
      </trkpt>
      <trkpt lat="45.10661" lon="2.7106">
        <ele>1583</ele>
        <time>2019-03-04T23:27:07Z</time>
      </trkpt>
      <trkpt lat="45.10672" lon="2.70989">
        <ele>1581</ele>
        <time>2019-03-04T23:28:07Z</time>
      </trkpt>
      <trkpt lat="45.10656" lon="2.70942">
        <ele>1573</ele>
        <time>2019-03-04T23:29:07Z</time>
      </trkpt>
      <trkpt lat="45.10675" lon="2.70856">
        <ele>1584</ele>
        <time>2019-03-04T23:30:07Z</time>
      </trkpt>
      <trkpt lat="45.10662" lon="2.70811">
        <ele>1579</ele>
        <time>2019-03-04T23:31:07Z</time>
      </trkpt>
      <trkpt lat="45.10675" lon="2.70737">
        <ele>1595</ele>
        <time>2019-03-04T23:32:07Z</time>
      </trkpt>
      <trkpt lat="45.10661" lon="2.70679">
        <ele>1601</ele>
        <time>2019-03-04T23:33:07Z</time>
      </trkpt>
      <trkpt lat="45.10611" lon="2.70628">
        <ele>1596</ele>
        <time>2019-03-04T23:34:07Z</time>
      </trkpt>
      <trkpt lat="45.106" lon="2.70596">
        <ele>1602</ele>
        <time>2019-03-04T23:35:07Z</time>
      </trkpt>
      <trkpt lat="45.10578" lon="2.70565">
        <ele>1598</ele>
        <time>2019-03-04T23:36:07Z</time>
      </trkpt>
      <trkpt lat="45.1059" lon="2.70461">
        <ele>1625</ele>
        <time>2019-03-04T23:37:07Z</time>
      </trkpt>
      <trkpt lat="45.10525" lon="2.70333">
        <ele>1606</ele>
        <time>2019-03-04T23:38:07Z</time>
      </trkpt>
      <trkpt lat="45.10531" lon="2.70141">
        <ele>1614</ele>
        <time>2019-03-04T23:39:07Z</time>
      </trkpt>
      <trkpt lat="45.1049" lon="2.69995">
        <ele>1627</ele>
        <time>2019-03-04T23:40:07Z</time>
      </trkpt>
      <trkpt lat="45.10424" lon="2.69918">
        <ele>1632</ele>
        <time>2019-03-04T23:41:07Z</time>
      </trkpt>
      <trkpt lat="45.10395" lon="2.69833">
        <ele>1622</ele>
        <time>2019-03-04T23:42:07Z</time>
      </trkpt>
      <trkpt lat="45.10367" lon="2.69681">
        <ele>1620</ele>
        <time>2019-03-04T23:43:07Z</time>
      </trkpt>
      <trkpt lat="45.1034" lon="2.69542">
        <ele>1625</ele>
        <time>2019-03-04T23:44:07Z</time>
      </trkpt>
      <trkpt lat="45.10275" lon="2.69461">
        <ele>1639</ele>
        <time>2019-03-04T23:45:07Z</time>
      </trkpt>
      <trkpt lat="45.10241" lon="2.69365">
        <ele>1646</ele>
        <time>2019-03-04T23:46:07Z</time>
      </trkpt>
      <trkpt lat="45.10242" lon="2.69261">
        <ele>1646</ele>
        <time>2019-03-04T23:47:07Z</time>
      </trkpt>
      <trkpt lat="45.10275" lon="2.69143">
        <ele>1645</ele>
        <time>2019-03-04T23:48:07Z</time>
      </trkpt>
      <trkpt lat="45.10322" lon="2.68976">
        <ele>1645</ele>
        <time>2019-03-04T23:49:07Z</time>
      </trkpt>
      <trkpt lat="45.1033" lon="2.68911">
        <ele>1645</ele>
        <time>2019-03-04T23:50:07Z</time>
      </trkpt>
      <trkpt lat="45.10369" lon="2.68831">
        <ele>1642</ele>
        <time>2019-03-04T23:51:07Z</time>
      </trkpt>
      <trkpt lat="45.1036" lon="2.68721">
        <ele>1628</ele>
        <time>2019-03-04T23:52:07Z</time>
      </trkpt>
      <trkpt lat="45.10374" lon="2.68613">
        <ele>1610</ele>
        <time>2019-03-04T23:53:07Z</time>
      </trkpt>
      <trkpt lat="45.10383" lon="2.68508">
        <ele>1606</ele>
        <time>2019-03-04T23:54:07Z</time>
      </trkpt>
      <trkpt lat="45.10443" lon="2.68366">
        <ele>1590</ele>
        <time>2019-03-04T23:55:07Z</time>
      </trkpt>
      <trkpt lat="45.10488" lon="2.68292">
        <ele>1587</ele>
        <time>2019-03-04T23:56:07Z</time>
      </trkpt>
      <trkpt lat="45.10551" lon="2.68236">
        <ele>1574</ele>
        <time>2019-03-04T23:57:07Z</time>
      </trkpt>
      <trkpt lat="45.10647" lon="2.68119">
        <ele>1580</ele>
        <time>2019-03-04T23:58:07Z</time>
      </trkpt>
      <trkpt lat="45.10688" lon="2.68007">
        <ele>1609</ele>
        <time>2019-03-04T23:59:07Z</time>
      </trkpt>
      <trkpt lat="45.10769" lon="2.67884">
        <ele>1651</ele>
        <time>2019-03-05T00:00:07Z</time>
      </trkpt>
      <trkpt lat="45.10916" lon="2.67704">
        <ele>1745</ele>
        <time>2019-03-05T00:01:07Z</time>
      </trkpt>
      <trkpt lat="45.10928" lon="2.67586">
        <ele>1749</ele>
        <time>2019-03-05T00:02:07Z</time>
      </trkpt>
      <trkpt lat="45.11049" lon="2.67444">
        <ele>1681</ele>
        <time>2019-03-05T00:03:07Z</time>
      </trkpt>
      <trkpt lat="45.11142" lon="2.6733">
        <ele>1638</ele>
        <time>2019-03-05T00:04:07Z</time>
      </trkpt>
      <trkpt lat="45.11203" lon="2.67325">
        <ele>1622</ele>
        <time>2019-03-05T00:05:07Z</time>
      </trkpt>
      <trkpt lat="45.11291" lon="2.67245">
        <ele>1595</ele>
        <time>2019-03-05T00:06:07Z</time>
      </trkpt>
      <trkpt lat="45.11363" lon="2.67209">
        <ele>1579</ele>
        <time>2019-03-05T00:07:07Z</time>
      </trkpt>
      <trkpt lat="45.11377" lon="2.67269">
        <ele>1573</ele>
        <time>2019-03-05T00:08:07Z</time>
      </trkpt>
      <trkpt lat="45.11308" lon="2.67467">
        <ele>1550</ele>
        <time>2019-03-05T00:09:07Z</time>
      </trkpt>
      <trkpt lat="45.1131" lon="2.67554">
        <ele>1533</ele>
        <time>2019-03-05T00:10:07Z</time>
      </trkpt>
      <trkpt lat="45.11284" lon="2.67633">
        <ele>1528</ele>
        <time>2019-03-05T00:11:07Z</time>
      </trkpt>
      <trkpt lat="45.11276" lon="2.67727">
        <ele>1511</ele>
        <time>2019-03-05T00:12:07Z</time>
      </trkpt>
      <trkpt lat="45.11214" lon="2.67803">
        <ele>1526</ele>
        <time>2019-03-05T00:13:07Z</time>
      </trkpt>
      <trkpt lat="45.11202" lon="2.67945">
        <ele>1520</ele>
        <time>2019-03-05T00:14:07Z</time>
      </trkpt>
      <trkpt lat="45.11182" lon="2.68048">
        <ele>1527</ele>
        <time>2019-03-05T00:15:07Z</time>
      </trkpt>
      <trkpt lat="45.11169" lon="2.68156">
        <ele>1519</ele>
        <time>2019-03-05T00:16:07Z</time>
      </trkpt>
      <trkpt lat="45.11122" lon="2.68194">
        <ele>1529</ele>
        <time>2019-03-05T00:17:07Z</time>
      </trkpt>
      <trkpt lat="45.11112" lon="2.68272">
        <ele>1513</ele>
        <time>2019-03-05T00:18:07Z</time>
      </trkpt>
      <trkpt lat="45.11061" lon="2.68308">
        <ele>1511</ele>
        <time>2019-03-05T00:19:07Z</time>
      </trkpt>
      <trkpt lat="45.11105" lon="2.68353">
        <ele>1491</ele>
        <time>2019-03-05T00:20:07Z</time>
      </trkpt>
      <trkpt lat="45.1104" lon="2.68384">
        <ele>1479</ele>
        <time>2019-03-05T00:21:07Z</time>
      </trkpt>
      <trkpt lat="45.11104" lon="2.68487">
        <ele>1442</ele>
        <time>2019-03-05T00:22:07Z</time>
      </trkpt>
      <trkpt lat="45.11221" lon="2.6855">
        <ele>1420</ele>
        <time>2019-03-05T00:23:07Z</time>
      </trkpt>
      <trkpt lat="45.11275" lon="2.68517">
        <ele>1412</ele>
        <time>2019-03-05T00:24:07Z</time>
      </trkpt>
      <trkpt lat="45.11322" lon="2.68571">
        <ele>1410</ele>
        <time>2019-03-05T00:25:07Z</time>
      </trkpt>
      <trkpt lat="45.11393" lon="2.68653">
        <ele>1394</ele>
        <time>2019-03-05T00:26:07Z</time>
      </trkpt>
      <trkpt lat="45.11425" lon="2.68896">
        <ele>1386</ele>
        <time>2019-03-05T00:27:07Z</time>
      </trkpt>
      <trkpt lat="45.1157" lon="2.69012">
        <ele>1373</ele>
        <time>2019-03-05T00:28:07Z</time>
      </trkpt>
      <trkpt lat="45.11621" lon="2.69086">
        <ele>1376</ele>
        <time>2019-03-05T00:29:07Z</time>
      </trkpt>
      <trkpt lat="45.11914" lon="2.6929">
        <ele>1369</ele>
        <time>2019-03-05T00:30:07Z</time>
      </trkpt>
      <trkpt lat="45.12147" lon="2.69443">
        <ele>1388</ele>
        <time>2019-03-05T00:31:07Z</time>
      </trkpt>
      <trkpt lat="45.12393" lon="2.696">
        <ele>1390</ele>
        <time>2019-03-05T00:32:07Z</time>
      </trkpt>
      <trkpt lat="45.12459" lon="2.69614">
        <ele>1380</ele>
        <time>2019-03-05T00:33:07Z</time>
      </trkpt>
      <trkpt lat="45.1254" lon="2.69674">
        <ele>1364</ele>
        <time>2019-03-05T00:34:07Z</time>
      </trkpt>
      <trkpt lat="45.12688" lon="2.69883">
        <ele>1353</ele>
        <time>2019-03-05T00:35:07Z</time>
      </trkpt>
      <trkpt lat="45.12818" lon="2.70031">
        <ele>1350</ele>
        <time>2019-03-05T00:36:07Z</time>
      </trkpt>
      <trkpt lat="45.12987" lon="2.7013">
        <ele>1336</ele>
        <time>2019-03-05T00:37:07Z</time>
      </trkpt>
      <trkpt lat="45.12955" lon="2.70219">
        <ele>1331</ele>
        <time>2019-03-05T00:38:07Z</time>
      </trkpt>
      <trkpt lat="45.13053" lon="2.70186">
        <ele>1328</ele>
        <time>2019-03-05T00:39:07Z</time>
      </trkpt>
      <trkpt lat="45.13085" lon="2.7034">
        <ele>1326</ele>
        <time>2019-03-05T00:40:07Z</time>
      </trkpt>
      <trkpt lat="45.13193" lon="2.70452">
        <ele>1327</ele>
        <time>2019-03-05T00:41:07Z</time>
      </trkpt>
      <trkpt lat="45.13261" lon="2.70596">
        <ele>1342</ele>
        <time>2019-03-05T00:42:07Z</time>
      </trkpt>
      <trkpt lat="45.13316" lon="2.70776">
        <ele>1362</ele>
        <time>2019-03-05T00:43:07Z</time>
      </trkpt>
      <trkpt lat="45.13514" lon="2.71104">
        <ele>1420</ele>
        <time>2019-03-05T00:44:07Z</time>
      </trkpt>
      <trkpt lat="45.13598" lon="2.71255">
        <ele>1443</ele>
        <time>2019-03-05T00:45:07Z</time>
      </trkpt>
      <trkpt lat="45.13634" lon="2.71389">
        <ele>1449</ele>
        <time>2019-03-05T00:46:07Z</time>
      </trkpt>
      <trkpt lat="45.137" lon="2.71432">
        <ele>1456</ele>
        <time>2019-03-05T00:47:07Z</time>
      </trkpt>
      <trkpt lat="45.13715" lon="2.71519">
        <ele>1457</ele>
        <time>2019-03-05T00:48:07Z</time>
      </trkpt>
      <trkpt lat="45.13955" lon="2.71703">
        <ele>1471</ele>
        <time>2019-03-05T00:49:07Z</time>
      </trkpt>
      <trkpt lat="45.14194" lon="2.72464">
        <ele>1497</ele>
        <time>2019-03-05T00:50:07Z</time>
      </trkpt>
      <trkpt lat="45.14273" lon="2.72526">
        <ele>1510</ele>
        <time>2019-03-05T00:51:07Z</time>
      </trkpt>
      <trkpt lat="45.144" lon="2.72786">
        <ele>1508</ele>
        <time>2019-03-05T00:52:07Z</time>
      </trkpt>
      <trkpt lat="45.14487" lon="2.72944">
        <ele>1525</ele>
        <time>2019-03-05T00:53:07Z</time>
      </trkpt>
      <trkpt lat="45.14609" lon="2.73132">
        <ele>1562</ele>
        <time>2019-03-05T00:54:07Z</time>
      </trkpt>
      <trkpt lat="45.14683" lon="2.73201">
        <ele>1586</ele>
        <time>2019-03-05T00:55:07Z</time>
      </trkpt>
      <trkpt lat="45.14792" lon="2.73255">
        <ele>1604</ele>
        <time>2019-03-05T00:56:07Z</time>
      </trkpt>
      <trkpt lat="45.14789" lon="2.7333">
        <ele>1599</ele>
        <time>2019-03-05T00:57:07Z</time>
      </trkpt>
      <trkpt lat="45.14802" lon="2.73442">
        <ele>1580</ele>
        <time>2019-03-05T00:58:07Z</time>
      </trkpt>
      <trkpt lat="45.14881" lon="2.73504">
        <ele>1582</ele>
        <time>2019-03-05T00:59:07Z</time>
      </trkpt>
      <trkpt lat="45.14965" lon="2.73666">
        <ele>1574</ele>
        <time>2019-03-05T01:00:07Z</time>
      </trkpt>
      <trkpt lat="45.1526" lon="2.73966">
        <ele>1526</ele>
        <time>2019-03-05T01:01:07Z</time>
      </trkpt>
      <trkpt lat="45.15525" lon="2.74186">
        <ele>1519</ele>
        <time>2019-03-05T01:02:07Z</time>
      </trkpt>
      <trkpt lat="45.15889" lon="2.74298">
        <ele>1542</ele>
        <time>2019-03-05T01:03:07Z</time>
      </trkpt>
      <trkpt lat="45.16184" lon="2.74485">
        <ele>1508</ele>
        <time>2019-03-05T01:04:07Z</time>
      </trkpt>
      <trkpt lat="45.16408" lon="2.74785">
        <ele>1501</ele>
        <time>2019-03-05T01:05:07Z</time>
      </trkpt>
      <trkpt lat="45.16655" lon="2.74908">
        <ele>1472</ele>
        <time>2019-03-05T01:06:07Z</time>
      </trkpt>
      <trkpt lat="45.16938" lon="2.75077">
        <ele>1466</ele>
      </trkpt>
      <trkpt lat="45.17242" lon="2.75181">
        <ele>1428.6</ele>
      </trkpt>
      <trkpt lat="45.1723" lon="2.75394">
        <ele>1428.6</ele>
      </trkpt>
      <trkpt lat="45.17231" lon="2.75454">
        <ele>1427</ele>
      </trkpt>
      <trkpt lat="45.17211" lon="2.75572">
        <ele>1425</ele>
      </trkpt>
      <trkpt lat="45.17171" lon="2.75698">
        <ele>1423</ele>
      </trkpt>
      <trkpt lat="45.17083" lon="2.75829">
        <ele>1419</ele>
      </trkpt>
      <trkpt lat="45.17035" lon="2.75918">
        <ele>1410</ele>
      </trkpt>
      <trkpt lat="45.16995" lon="2.7595">
        <ele>1411</ele>
      </trkpt>
      <trkpt lat="45.16949" lon="2.76021">
        <ele>1400.6</ele>
      </trkpt>
      <trkpt lat="45.16909" lon="2.76023">
        <ele>1402</ele>
      </trkpt>
      <trkpt lat="45.16891" lon="2.76095">
        <ele>1394</ele>
      </trkpt>
      <trkpt lat="45.16864" lon="2.76181">
        <ele>1389</ele>
      </trkpt>
      <trkpt lat="45.16881" lon="2.76358">
        <ele>1378</ele>
      </trkpt>
      <trkpt lat="45.16917" lon="2.76477">
        <ele>1371</ele>
      </trkpt>
      <trkpt lat="45.16966" lon="2.76616">
        <ele>1365</ele>
      </trkpt>
      <trkpt lat="45.17049" lon="2.76638">
        <ele>1359</ele>
      </trkpt>
      <trkpt lat="45.17109" lon="2.76673">
        <ele>1352</ele>
      </trkpt>
      <trkpt lat="45.17144" lon="2.76721">
        <ele>1350</ele>
      </trkpt>
      <trkpt lat="45.17188" lon="2.76806">
        <ele>1342</ele>
      </trkpt>
      <trkpt lat="45.17192" lon="2.7683">
        <ele>1341.8</ele>
      </trkpt>
      <trkpt lat="45.17264" lon="2.76838">
        <ele>1337</ele>
      </trkpt>
      <trkpt lat="45.17311" lon="2.76718">
        <ele>1346</ele>
      </trkpt>
      <trkpt lat="45.1737" lon="2.76695">
        <ele>1350.7</ele>
      </trkpt>
      <trkpt lat="45.17402" lon="2.76714">
        <ele>1351</ele>
      </trkpt>
      <trkpt lat="45.17428" lon="2.76705">
        <ele>1355</ele>
      </trkpt>
      <trkpt lat="45.1745" lon="2.76775">
        <ele>1351</ele>
      </trkpt>
      <trkpt lat="45.17436" lon="2.76792">
        <ele>1350</ele>
      </trkpt>
      <trkpt lat="45.17499" lon="2.76835">
        <ele>1350</ele>
      </trkpt>
      <trkpt lat="45.17639" lon="2.76859">
        <ele>1350</ele>
      </trkpt>
      <trkpt lat="45.17715" lon="2.76853">
        <ele>1349</ele>
      </trkpt>
      <trkpt lat="45.17801" lon="2.7683">
        <ele>1350.1</ele>
      </trkpt>
      <trkpt lat="45.17832" lon="2.76935">
        <ele>1342</ele>
      </trkpt>
      <trkpt lat="45.17915" lon="2.76935">
        <ele>1337</ele>
      </trkpt>
      <trkpt lat="45.18013" lon="2.76933">
        <ele>1330</ele>
      </trkpt>
      <trkpt lat="45.1814" lon="2.7683">
        <ele>1324</ele>
      </trkpt>
      <trkpt lat="45.18288" lon="2.76807">
        <ele>1315.5</ele>
      </trkpt>
      <trkpt lat="45.18459" lon="2.76814">
        <ele>1311</ele>
      </trkpt>
      <trkpt lat="45.18549" lon="2.76893">
        <ele>1305</ele>
      </trkpt>
      <trkpt lat="45.18579" lon="2.76857">
        <ele>1306.1</ele>
      </trkpt>
      <trkpt lat="45.18733" lon="2.76506">
        <ele>1305.2</ele>
      </trkpt>
      <trkpt lat="45.1879" lon="2.76345">
        <ele>1306.9</ele>
      </trkpt>
      <trkpt lat="45.18816" lon="2.76251">
        <ele>1308</ele>
        <time>2019-03-05T01:16:07Z</time>
      </trkpt>
      <trkpt lat="45.18942" lon="2.75881">
        <ele>1305</ele>
        <time>2019-03-05T01:17:07Z</time>
      </trkpt>
      <trkpt lat="45.18983" lon="2.75819">
        <ele>1302</ele>
      </trkpt>
      <trkpt lat="45.19045" lon="2.75811">
        <ele>1295.1</ele>
      </trkpt>
      <trkpt lat="45.19228" lon="2.75838">
        <ele>1284</ele>
        <time>2019-03-05T01:19:07Z</time>
      </trkpt>
      <trkpt lat="45.19332" lon="2.75931">
        <ele>1279</ele>
      </trkpt>
      <trkpt lat="45.19448" lon="2.75978">
        <ele>1277.1</ele>
      </trkpt>
      <trkpt lat="45.1956" lon="2.75944">
        <ele>1270</ele>
      </trkpt>
      <trkpt lat="45.19683" lon="2.75871">
        <ele>1259</ele>
        <time>2019-03-05T01:21:07Z</time>
      </trkpt>
      <trkpt lat="45.19866" lon="2.75858">
        <ele>1247</ele>
      </trkpt>
      <trkpt lat="45.20046" lon="2.75915">
        <ele>1247</ele>
        <time>2019-03-05T01:22:07Z</time>
      </trkpt>
      <trkpt lat="45.20254" lon="2.75956">
        <ele>1251</ele>
      </trkpt>
      <trkpt lat="45.20483" lon="2.76057">
        <ele>1252</ele>
        <time>2019-03-05T01:23:07Z</time>
      </trkpt>
      <trkpt lat="45.20575" lon="2.76019">
        <ele>1249</ele>
      </trkpt>
      <trkpt lat="45.20666" lon="2.75948">
        <ele>1245</ele>
        <time>2019-03-05T01:24:07Z</time>
      </trkpt>
      <trkpt lat="45.20929" lon="2.75853">
        <ele>1226</ele>
        <time>2019-03-05T01:25:07Z</time>
      </trkpt>
      <trkpt lat="45.21182" lon="2.76027">
        <ele>1221</ele>
        <time>2019-03-05T01:26:07Z</time>
      </trkpt>
      <trkpt lat="45.21301" lon="2.76109">
        <ele>1210</ele>
        <time>2019-03-05T01:27:07Z</time>
      </trkpt>
      <trkpt lat="45.21444" lon="2.76092">
        <ele>1198.1</ele>
      </trkpt>
      <trkpt lat="45.2179" lon="2.76047">
        <ele>1195</ele>
        <time>2019-03-05T01:29:07Z</time>
      </trkpt>
      <trkpt lat="45.2194" lon="2.76092">
        <ele>1186</ele>
      </trkpt>
      <trkpt lat="45.2209" lon="2.76075">
        <ele>1182</ele>
        <time>2019-03-05T01:30:07Z</time>
      </trkpt>
      <trkpt lat="45.22381" lon="2.7617">
        <ele>1175</ele>
        <time>2019-03-05T01:31:07Z</time>
      </trkpt>
      <trkpt lat="45.22724" lon="2.76435">
        <ele>1169</ele>
        <time>2019-03-05T01:32:07Z</time>
      </trkpt>
      <trkpt lat="45.22807" lon="2.76473">
        <ele>1166</ele>
        <time>2019-03-05T01:33:07Z</time>
      </trkpt>
      <trkpt lat="45.22922" lon="2.7644">
        <ele>1163</ele>
        <time>2019-03-05T01:34:07Z</time>
      </trkpt>
      <trkpt lat="45.23001" lon="2.76481">
        <ele>1161</ele>
        <time>2019-03-05T01:35:07Z</time>
      </trkpt>
      <trkpt lat="45.23121" lon="2.76547">
        <ele>1162</ele>
        <time>2019-03-05T01:36:07Z</time>
      </trkpt>
      <trkpt lat="45.23147" lon="2.76616">
        <ele>1162</ele>
        <time>2019-03-05T01:37:07Z</time>
      </trkpt>
      <trkpt lat="45.23325" lon="2.76639">
        <ele>1163</ele>
        <time>2019-03-05T01:38:07Z</time>
      </trkpt>
      <trkpt lat="45.234" lon="2.76604">
        <ele>1159</ele>
        <time>2019-03-05T01:39:07Z</time>
      </trkpt>
      <trkpt lat="45.23635" lon="2.76609">
        <ele>1161</ele>
        <time>2019-03-05T01:40:07Z</time>
      </trkpt>
      <trkpt lat="45.23812" lon="2.76665">
        <ele>1161</ele>
        <time>2019-03-05T01:41:07Z</time>
      </trkpt>
      <trkpt lat="45.23878" lon="2.7666">
        <ele>1162</ele>
        <time>2019-03-05T01:42:07Z</time>
      </trkpt>
      <trkpt lat="45.24097" lon="2.76798">
        <ele>1158</ele>
        <time>2019-03-05T01:43:07Z</time>
      </trkpt>
      <trkpt lat="45.24234" lon="2.76851">
        <ele>1157</ele>
        <time>2019-03-05T01:44:07Z</time>
      </trkpt>
      <trkpt lat="45.24293" lon="2.77316">
        <ele>1131</ele>
        <time>2019-03-05T01:45:07Z</time>
      </trkpt>
      <trkpt lat="45.24385" lon="2.77369">
        <ele>1135</ele>
        <time>2019-03-05T01:46:07Z</time>
      </trkpt>
      <trkpt lat="45.24383" lon="2.77441">
        <ele>1125</ele>
        <time>2019-03-05T01:47:07Z</time>
      </trkpt>
      <trkpt lat="45.24485" lon="2.7754">
        <ele>1123</ele>
        <time>2019-03-05T01:48:07Z</time>
      </trkpt>
      <trkpt lat="45.24586" lon="2.77834">
        <ele>1091</ele>
        <time>2019-03-05T01:49:07Z</time>
      </trkpt>
      <trkpt lat="45.24611" lon="2.77905">
        <ele>1079</ele>
        <time>2019-03-05T01:50:07Z</time>
      </trkpt>
      <trkpt lat="45.24697" lon="2.77874">
        <ele>1074</ele>
        <time>2019-03-05T01:51:07Z</time>
      </trkpt>
      <trkpt lat="45.24828" lon="2.77936">
        <ele>1064</ele>
        <time>2019-03-05T01:52:07Z</time>
      </trkpt>
      <trkpt lat="45.24757" lon="2.78135">
        <ele>1038</ele>
        <time>2019-03-05T01:53:07Z</time>
      </trkpt>
      <trkpt lat="45.2481" lon="2.78293">
        <ele>1031</ele>
        <time>2019-03-05T01:54:07Z</time>
      </trkpt>
      <trkpt lat="45.25001" lon="2.78431">
        <ele>1022</ele>
        <time>2019-03-05T01:55:07Z</time>
      </trkpt>
      <trkpt lat="45.25031" lon="2.78617">
        <ele>1009</ele>
        <time>2019-03-05T01:56:07Z</time>
      </trkpt>
      <trkpt lat="45.25107" lon="2.78778">
        <ele>996</ele>
        <time>2019-03-05T01:57:07Z</time>
      </trkpt>
      <trkpt lat="45.25206" lon="2.78864">
        <ele>984</ele>
        <time>2019-03-05T01:58:07Z</time>
      </trkpt>
      <trkpt lat="45.25254" lon="2.78977">
        <ele>977</ele>
        <time>2019-03-05T01:59:07Z</time>
      </trkpt>
      <trkpt lat="45.25339" lon="2.79094">
        <ele>971</ele>
        <time>2019-03-05T02:00:07Z</time>
      </trkpt>
      <trkpt lat="45.25482" lon="2.79268">
        <ele>968</ele>
        <time>2019-03-05T02:01:07Z</time>
      </trkpt>
      <trkpt lat="45.25473" lon="2.79352">
        <ele>958</ele>
        <time>2019-03-05T02:02:07Z</time>
      </trkpt>
      <trkpt lat="45.25543" lon="2.79474">
        <ele>948</ele>
        <time>2019-03-05T02:03:07Z</time>
      </trkpt>
      <trkpt lat="45.25649" lon="2.7939">
        <ele>951</ele>
        <time>2019-03-05T02:04:07Z</time>
      </trkpt>
      <trkpt lat="45.25849" lon="2.7952">
        <ele>961</ele>
        <time>2019-03-05T02:05:07Z</time>
      </trkpt>
      <trkpt lat="45.25992" lon="2.7953">
        <ele>976</ele>
        <time>2019-03-05T02:06:07Z</time>
      </trkpt>
      <trkpt lat="45.2607" lon="2.79433">
        <ele>983</ele>
        <time>2019-03-05T02:07:07Z</time>
      </trkpt>
      <trkpt lat="45.26161" lon="2.79384">
        <ele>975</ele>
        <time>2019-03-05T02:08:07Z</time>
      </trkpt>
      <trkpt lat="45.26264" lon="2.79329">
        <ele>968</ele>
        <time>2019-03-05T02:09:07Z</time>
      </trkpt>
      <trkpt lat="45.26326" lon="2.79256">
        <ele>971</ele>
        <time>2019-03-05T02:10:07Z</time>
      </trkpt>
      <trkpt lat="45.26392" lon="2.79384">
        <ele>965</ele>
        <time>2019-03-05T02:11:07Z</time>
      </trkpt>
      <trkpt lat="45.26488" lon="2.79399">
        <ele>964</ele>
        <time>2019-03-05T02:12:07Z</time>
      </trkpt>
      <trkpt lat="45.26559" lon="2.79487">
        <ele>953</ele>
        <time>2019-03-05T02:13:07Z</time>
      </trkpt>
      <trkpt lat="45.26638" lon="2.79308">
        <ele>951</ele>
        <time>2019-03-05T02:14:07Z</time>
      </trkpt>
      <trkpt lat="45.26694" lon="2.79237">
        <ele>946</ele>
      </trkpt>
      <trkpt lat="45.26802" lon="2.79168">
        <ele>937</ele>
        <time>2019-03-05T02:15:07Z</time>
      </trkpt>
      <trkpt lat="45.26888" lon="2.79179">
        <ele>933</ele>
      </trkpt>
      <trkpt lat="45.26945" lon="2.79153">
        <ele>932</ele>
        <time>2019-03-05T02:16:07Z</time>
      </trkpt>
      <trkpt lat="45.2705" lon="2.79017">
        <ele>932</ele>
        <time>2019-03-05T02:17:07Z</time>
      </trkpt>
      <trkpt lat="45.27131" lon="2.79044">
        <ele>927</ele>
      </trkpt>
      <trkpt lat="45.27369" lon="2.79023">
        <ele>918.4</ele>
      </trkpt>
      <trkpt lat="45.27419" lon="2.7898">
        <ele>916</ele>
      </trkpt>
      <trkpt lat="45.27452" lon="2.7889">
        <ele>922</ele>
      </trkpt>
      <trkpt lat="45.27569" lon="2.78791">
        <ele>917</ele>
      </trkpt>
      <trkpt lat="45.27688" lon="2.78704">
        <ele>911</ele>
        <time>2019-03-05T02:20:07Z</time>
      </trkpt>
      <trkpt lat="45.27752" lon="2.78725">
        <ele>904</ele>
        <time>2019-03-05T02:21:07Z</time>
      </trkpt>
      <trkpt lat="45.27821" lon="2.78677">
        <ele>901</ele>
        <time>2019-03-05T02:22:07Z</time>
      </trkpt>
      <trkpt lat="45.27944" lon="2.78819">
        <ele>902</ele>
        <time>2019-03-05T02:23:07Z</time>
      </trkpt>
      <trkpt lat="45.28094" lon="2.78801">
        <ele>902</ele>
        <time>2019-03-05T02:24:07Z</time>
      </trkpt>
      <trkpt lat="45.28096" lon="2.7891">
        <ele>909</ele>
        <time>2019-03-05T02:25:07Z</time>
      </trkpt>
      <trkpt lat="45.28167" lon="2.78904">
        <ele>927</ele>
        <time>2019-03-05T02:26:07Z</time>
      </trkpt>
      <trkpt lat="45.28186" lon="2.79029">
        <ele>942</ele>
        <time>2019-03-05T02:27:07Z</time>
      </trkpt>
      <trkpt lat="45.28425" lon="2.79199">
        <ele>1010</ele>
        <time>2019-03-05T02:28:07Z</time>
      </trkpt>
      <trkpt lat="45.28497" lon="2.79259">
        <ele>1030</ele>
        <time>2019-03-05T02:29:07Z</time>
      </trkpt>
      <trkpt lat="45.28568" lon="2.79429">
        <ele>1038</ele>
        <time>2019-03-05T02:30:07Z</time>
      </trkpt>
      <trkpt lat="45.28542" lon="2.7949">
        <ele>1029</ele>
        <time>2019-03-05T02:31:07Z</time>
      </trkpt>
      <trkpt lat="45.28717" lon="2.7986">
        <ele>1043</ele>
        <time>2019-03-05T02:32:07Z</time>
      </trkpt>
      <trkpt lat="45.28916" lon="2.80009">
        <ele>1028</ele>
        <time>2019-03-05T02:33:07Z</time>
      </trkpt>
      <trkpt lat="45.29011" lon="2.8019">
        <ele>1021.9</ele>
      </trkpt>
      <trkpt lat="45.29068" lon="2.80254">
        <ele>1023</ele>
      </trkpt>
      <trkpt lat="45.29137" lon="2.80299">
        <ele>1021.9</ele>
      </trkpt>
      <trkpt lat="45.29228" lon="2.80315">
        <ele>1020</ele>
        <time>2019-03-05T02:36:07Z</time>
      </trkpt>
      <trkpt lat="45.29245" lon="2.80379">
        <ele>1023</ele>
        <time>2019-03-05T02:37:07Z</time>
      </trkpt>
      <trkpt lat="45.29366" lon="2.8047">
        <ele>1022</ele>
        <time>2019-03-05T02:38:07Z</time>
      </trkpt>
      <trkpt lat="45.29467" lon="2.8061">
        <ele>1029</ele>
        <time>2019-03-05T02:39:07Z</time>
      </trkpt>
      <trkpt lat="45.29477" lon="2.80798">
        <ele>1042</ele>
        <time>2019-03-05T02:40:07Z</time>
      </trkpt>
      <trkpt lat="45.29513" lon="2.80868">
        <ele>1047</ele>
      </trkpt>
      <trkpt lat="45.2958" lon="2.80901">
        <ele>1049</ele>
        <time>2019-03-05T02:41:07Z</time>
      </trkpt>
      <trkpt lat="45.29729" lon="2.80859">
        <ele>1042</ele>
        <time>2019-03-05T02:42:07Z</time>
      </trkpt>
      <trkpt lat="45.29787" lon="2.8095">
        <ele>1041</ele>
        <time>2019-03-05T02:43:07Z</time>
      </trkpt>
      <trkpt lat="45.29802" lon="2.81196">
        <ele>1049.5</ele>
      </trkpt>
      <trkpt lat="45.29778" lon="2.81472">
        <ele>1053</ele>
        <time>2019-03-05T02:45:07Z</time>
      </trkpt>
      <trkpt lat="45.29753" lon="2.81576">
        <ele>1057</ele>
      </trkpt>
      <trkpt lat="45.29771" lon="2.81696">
        <ele>1049</ele>
      </trkpt>
      <trkpt lat="45.2977" lon="2.81795">
        <ele>1056</ele>
      </trkpt>
      <trkpt lat="45.29798" lon="2.81857">
        <ele>1056</ele>
        <time>2019-03-05T02:46:07Z</time>
      </trkpt>
      <trkpt lat="45.29934" lon="2.82323">
        <ele>1047.7</ele>
      </trkpt>
      <trkpt lat="45.30011" lon="2.826">
        <ele>1048</ele>
        <time>2019-03-05T02:48:07Z</time>
      </trkpt>
      <trkpt lat="45.29988" lon="2.82713">
        <ele>1058</ele>
        <time>2019-03-05T02:49:07Z</time>
      </trkpt>
      <trkpt lat="45.30086" lon="2.82937">
        <ele>1056</ele>
        <time>2019-03-05T02:50:07Z</time>
      </trkpt>
      <trkpt lat="45.30067" lon="2.8308">
        <ele>1060</ele>
        <time>2019-03-05T02:51:07Z</time>
      </trkpt>
      <trkpt lat="45.30075" lon="2.83173">
        <ele>1065</ele>
      </trkpt>
      <trkpt lat="45.30114" lon="2.83201">
        <ele>1059</ele>
        <time>2019-03-05T02:52:07Z</time>
      </trkpt>
      <trkpt lat="45.30205" lon="2.83053">
        <ele>1055</ele>
        <time>2019-03-05T02:53:07Z</time>
      </trkpt>
      <trkpt lat="45.30235" lon="2.82822">
        <ele>1056</ele>
        <time>2019-03-05T02:54:07Z</time>
      </trkpt>
      <trkpt lat="45.30293" lon="2.82758">
        <ele>1060</ele>
        <time>2019-03-05T02:55:07Z</time>
      </trkpt>
      <trkpt lat="45.30438" lon="2.82831">
        <ele>1071</ele>
        <time>2019-03-05T02:56:07Z</time>
      </trkpt>
      <trkpt lat="45.30511" lon="2.82816">
        <ele>1071</ele>
        <time>2019-03-05T02:57:07Z</time>
      </trkpt>
    </trkseg>
  </trk>
</gpx>